Terminal Aerodrome Forecast
Issued by NWS

Home | Current Version | Previous Version | Graphics & Text | Print | Product List | Glossary On
Versions: 1 2 3 4 5 6 7 8 9 10 11 12 13 14 15 16 17 18 19 20 21 22 23 24 25 26 27 28 29 30 31 32 33 34 35 36
000
FTUS43 KLOT 251700
TAFDPA
TAF
KDPA 251737Z 2518/2618 03018G27KT 4SM -SN BR OVC010
      TEMPO 2518/2520 2SM -SN BR
     FM252200 03016G24KT P6SM -SN BKN020
     FM260300 02012KT P6SM BKN025
     FM260700 VRB03KT P6SM SCT025
     FM261400 21005KT P6SM FEW025 BKN080=

USA.gov is the U.S. government's official web portal to all federal, state and local government web resources and services.